Time;durP1;ratioP1;P1;durP2;ratioP2;P2;SDS_P1;SDS_P2;PMS_P1;PMS_P2;Temp;Humidity;BMP_temperature;BMP_pressure;BME280_temperature;BME280_humidity;BME280_pressure;Samples;Min_cycle;Max_cycle;Signal;HPM_P1;HPM_P2
2023/08/08 00:01:31;;;;;;;9.88;2.70;;;14.50;99.90;;;;;;5033098;28;20167;-47
2023/08/08 00:03:57;;;;;;;4.05;2.30;;;14.50;99.90;;;;;;5032210;28;20218;-47
2023/08/08 00:06:22;;;;;;;3.90;2.50;;;14.40;99.90;;;;;;5032448;28;20207;-46
2023/08/08 00:08:48;;;;;;;6.55;2.20;;;14.40;99.90;;;;;;5032661;28;20171;-45
2023/08/08 00:11:13;;;;;;;3.65;2.50;;;14.40;99.90;;;;;;5018902;28;20176;-47
2023/08/08 00:13:39;;;;;;;5.15;2.30;;;14.40;99.90;;;;;;5012652;28;20435;-46
2023/08/08 00:16:05;;;;;;;5.32;2.20;;;14.40;99.90;;;;;;5012925;28;20183;-46
2023/08/08 00:18:30;;;;;;;8.73;2.70;;;14.40;99.90;;;;;;5012619;28;20164;-46
2023/08/08 00:20:58;;;;;;;3.70;2.17;;;14.40;99.90;;;;;;5012016;28;20164;-49
2023/08/08 00:23:24;;;;;;;7.85;2.50;;;14.30;99.90;;;;;;5012446;28;20175;-46
2023/08/08 00:25:51;;;;;;;5.00;2.75;;;14.30;99.90;;;;;;5012512;28;20211;-49
2023/08/08 00:28:17;;;;;;;5.32;2.90;;;14.30;99.90;;;;;;5012352;28;20251;-46
2023/08/08 00:30:43;;;;;;;8.02;3.28;;;14.20;99.90;;;;;;5012392;28;20194;-47
2023/08/08 00:33:09;;;;;;;9.40;2.88;;;14.20;99.90;;;;;;5012231;28;20172;-46
2023/08/08 00:35:34;;;;;;;7.38;2.50;;;14.10;99.90;;;;;;5012799;28;20168;-46
2023/08/08 00:38:00;;;;;;;9.32;2.90;;;14.10;99.90;;;;;;5012377;28;20542;-49
2023/08/08 00:40:25;;;;;;;6.75;2.78;;;14.10;99.90;;;;;;5018824;28;20560;-52
2023/08/08 00:42:51;;;;;;;5.03;2.80;;;14.00;99.90;;;;;;5031809;28;20301;-47
2023/08/08 00:45:16;;;;;;;9.20;3.08;;;14.00;99.90;;;;;;5031766;28;20195;-49
2023/08/08 00:47:42;;;;;;;6.20;2.17;;;14.00;99.90;;;;;;5031768;28;20178;-49
2023/08/08 00:50:10;;;;;;;8.93;3.13;;;14.00;99.90;;;;;;5031712;28;20250;-46
2023/08/08 00:52:37;;;;;;;5.05;2.95;;;14.00;99.90;;;;;;5031750;28;20176;-47
2023/08/08 00:55:03;;;;;;;3.15;2.40;;;14.00;99.90;;;;;;5032051;28;20575;-48
2023/08/08 00:57:29;;;;;;;8.02;2.80;;;14.00;99.90;;;;;;5031677;28;20651;-55
2023/08/08 00:59:54;;;;;;;4.63;2.50;;;14.00;99.90;;;;;;5031715;28;20167;-48
2023/08/08 01:02:20;;;;;;;5.97;2.42;;;13.90;99.90;;;;;;5031778;28;20179;-49
2023/08/08 01:04:46;;;;;;;5.82;2.97;;;14.00;99.90;;;;;;5031534;28;20556;-53
2023/08/08 01:07:23;;;;;;;3.70;2.63;;;13.90;99.90;;;;;;5031569;28;20242;-51
2023/08/08 01:10:07;;;;;;;8.45;2.55;;;13.90;99.90;;;;;;5030854;28;20163;-55
2023/08/08 01:12:37;;;;;;;5.55;2.40;;;13.90;99.90;;;;;;5031780;28;20296;-50
2023/08/08 01:15:06;;;;;;;6.18;2.42;;;13.90;99.90;;;;;;5031727;28;20175;-52
2023/08/08 01:17:32;;;;;;;6.85;2.60;;;13.90;99.90;;;;;;5031681;28;20225;-52
2023/08/08 01:19:58;;;;;;;5.70;2.90;;;13.90;99.90;;;;;;5031379;28;20164;-47
2023/08/08 01:22:29;;;;;;;7.30;2.85;;;13.90;99.90;;;;;;5031520;28;20171;-46
2023/08/08 01:24:56;;;;;;;5.97;3.13;;;13.80;99.90;;;;;;5031372;28;20637;-46
2023/08/08 01:27:22;;;;;;;7.40;2.97;;;13.80;99.90;;;;;;5031441;28;20220;-46
2023/08/08 01:29:47;;;;;;;5.80;2.63;;;13.80;99.90;;;;;;5031248;28;20255;-46
2023/08/08 01:32:13;;;;;;;4.78;2.75;;;13.80;99.90;;;;;;5030395;28;20254;-47
2023/08/08 01:34:39;;;;;;;4.20;2.65;;;13.80;99.90;;;;;;5031115;28;20167;-46
2023/08/08 01:37:14;;;;;;;3.10;2.10;;;13.80;99.90;;;;;;5031416;28;20254;-46
2023/08/08 01:39:42;;;;;;;4.55;2.80;;;13.70;99.90;;;;;;5025417;28;20172;-46
2023/08/08 01:42:08;;;;;;;4.45;2.60;;;13.70;99.90;;;;;;5011088;28;20684;-47
2023/08/08 01:44:34;;;;;;;5.30;2.42;;;13.70;99.90;;;;;;5010276;28;20263;-47
2023/08/08 01:47:01;;;;;;;3.95;2.20;;;13.70;99.90;;;;;;5012243;28;20266;-47
2023/08/08 01:49:26;;;;;;;7.88;2.70;;;13.70;99.90;;;;;;5011224;28;20179;-47
2023/08/08 01:51:52;;;;;;;3.97;2.63;;;13.70;99.90;;;;;;5011072;28;20175;-47
2023/08/08 01:54:18;;;;;;;5.32;2.50;;;13.60;99.90;;;;;;5011427;28;20172;-47
2023/08/08 01:56:44;;;;;;;5.20;2.30;;;13.60;99.90;;;;;;5011097;28;20164;-47
2023/08/08 01:59:09;;;;;;;6.57;2.95;;;13.60;99.90;;;;;;5011008;28;20168;-46
2023/08/08 02:01:35;;;;;;;4.50;2.50;;;13.50;99.90;;;;;;5011270;28;20168;-46
2023/08/08 02:04:01;;;;;;;3.42;1.95;;;13.50;99.90;;;;;;5011469;28;20175;-46
2023/08/08 02:06:26;;;;;;;5.90;2.50;;;13.50;99.90;;;;;;5010878;28;20242;-46
2023/08/08 02:08:52;;;;;;;2.30;2.03;;;13.50;99.90;;;;;;5012403;28;20526;-46
2023/08/08 02:11:17;;;;;;;5.10;2.70;;;13.50;99.90;;;;;;5030749;28;20660;-46
2023/08/08 02:13:43;;;;;;;4.97;2.67;;;13.50;99.90;;;;;;5030596;28;20689;-48
2023/08/08 02:16:08;;;;;;;6.35;2.75;;;13.50;99.90;;;;;;5030638;28;20558;-46
2023/08/08 02:18:34;;;;;;;10.55;3.05;;;13.50;99.90;;;;;;5031089;28;20500;-47
2023/08/08 02:20:59;;;;;;;3.42;2.28;;;13.50;99.90;;;;;;5030708;28;20513;-47
2023/08/08 02:23:26;;;;;;;6.97;2.60;;;13.40;99.90;;;;;;5030528;28;20175;-46
2023/08/08 02:25:51;;;;;;;6.68;2.40;;;13.40;99.90;;;;;;5030453;28;20195;-47
2023/08/08 02:28:17;;;;;;;3.60;2.10;;;13.40;99.90;;;;;;5029816;28;20159;-47
2023/08/08 02:30:43;;;;;;;3.97;2.13;;;13.40;99.90;;;;;;5030656;28;20202;-47
2023/08/08 02:33:08;;;;;;;4.57;2.10;;;13.40;99.90;;;;;;5030290;28;20183;-47
2023/08/08 02:35:34;;;;;;;4.38;2.15;;;13.40;99.90;;;;;;5030769;28;20654;-48
2023/08/08 02:37:59;;;;;;;5.78;2.05;;;13.40;99.90;;;;;;5030262;28;20628;-47
2023/08/08 02:40:26;;;;;;;6.35;2.30;;;13.30;99.90;;;;;;5016044;28;20184;-49
2023/08/08 02:42:52;;;;;;;4.38;2.45;;;13.30;99.90;;;;;;5010177;28;20195;-47
2023/08/08 02:45:17;;;;;;;2.92;2.58;;;13.30;99.90;;;;;;5014076;28;20207;-47
2023/08/08 02:47:43;;;;;;;4.00;2.30;;;13.30;99.90;;;;;;5014083;28;20176;-47
2023/08/08 02:50:09;;;;;;;4.50;2.03;;;13.30;99.90;;;;;;5013989;28;20190;-48
2023/08/08 02:52:34;;;;;;;4.20;2.20;;;13.30;99.90;;;;;;5014445;28;20259;-48
2023/08/08 02:55:01;;;;;;;6.82;2.30;;;13.30;99.90;;;;;;5012996;28;20168;-47
2023/08/08 02:57:27;;;;;;;4.43;2.08;;;13.30;99.90;;;;;;5013778;28;20164;-47
2023/08/08 02:59:53;;;;;;;3.90;2.35;;;13.30;99.90;;;;;;5013871;28;20179;-47
2023/08/08 03:02:18;;;;;;;8.38;2.47;;;13.30;99.90;;;;;;5013968;28;20176;-52
2023/08/08 03:04:44;;;;;;;3.60;2.30;;;13.30;99.90;;;;;;5013737;28;20170;-48
2023/08/08 03:07:09;;;;;;;4.40;2.28;;;13.30;99.90;;;;;;5013915;28;20242;-48
2023/08/08 03:09:35;;;;;;;4.03;2.13;;;13.20;99.90;;;;;;5020376;28;20639;-49
2023/08/08 03:12:00;;;;;;;3.90;2.10;;;13.30;99.90;;;;;;5033115;28;20234;-48
2023/08/08 03:14:26;;;;;;;5.60;2.25;;;13.20;99.90;;;;;;5033363;28;20164;-47
2023/08/08 03:16:51;;;;;;;3.20;2.47;;;13.30;99.90;;;;;;5033369;28;20191;-47
2023/08/08 03:19:17;;;;;;;3.58;2.40;;;13.30;99.90;;;;;;5033299;28;20171;-47
2023/08/08 03:21:43;;;;;;;5.25;2.28;;;13.30;99.90;;;;;;5033189;28;20189;-48
2023/08/08 03:24:08;;;;;;;9.25;2.65;;;13.20;99.90;;;;;;5033297;28;20160;-48
2023/08/08 03:26:34;;;;;;;4.78;2.90;;;13.30;99.90;;;;;;5033578;28;20256;-48
2023/08/08 03:28:59;;;;;;;7.32;2.83;;;13.20;99.90;;;;;;5033470;28;20163;-47
2023/08/08 03:31:26;;;;;;;9.82;2.60;;;13.20;99.90;;;;;;5033261;28;20190;-47
2023/08/08 03:33:51;;;;;;;5.30;2.10;;;13.20;99.90;;;;;;5033597;28;20172;-48
2023/08/08 03:36:17;;;;;;;3.92;2.50;;;13.20;99.90;;;;;;5033156;28;20187;-48
2023/08/08 03:38:45;;;;;;;3.50;2.67;;;13.20;99.90;;;;;;5030871;28;20166;-47
2023/08/08 03:41:12;;;;;;;3.72;2.10;;;13.20;99.90;;;;;;5013319;28;20176;-50
2023/08/08 03:43:38;;;;;;;7.20;2.88;;;13.10;99.90;;;;;;5013196;28;20169;-47
2023/08/08 03:46:04;;;;;;;7.78;2.50;;;13.10;99.90;;;;;;5013453;28;20562;-48
2023/08/08 03:48:29;;;;;;;7.00;2.90;;;14.20;99.90;;;;;;5013684;28;20167;-49
2023/08/08 03:50:55;;;;;;;6.20;2.70;;;13.10;99.90;;;;;;5013100;28;20638;-49
2023/08/08 03:53:20;;;;;;;4.55;2.28;;;13.10;99.90;;;;;;5013144;28;20187;-47
2023/08/08 03:55:46;;;;;;;5.15;2.50;;;13.10;99.90;;;;;;5012198;28;20160;-48
2023/08/08 03:58:11;;;;;;;7.50;2.70;;;13.20;99.90;;;;;;5012985;28;20168;-47
2023/08/08 04:00:39;;;;;;;6.57;2.72;;;13.20;99.90;;;;;;5012975;28;20230;-47
2023/08/08 04:03:04;;;;;;;9.88;2.95;;;13.10;99.90;;;;;;5013009;28;20186;-47
2023/08/08 04:05:30;;;;;;;3.88;2.25;;;13.10;99.90;;;;;;5013255;28;20195;-48
2023/08/08 04:07:55;;;;;;;8.27;2.83;;;13.10;99.90;;;;;;5012797;28;20172;-48
2023/08/08 04:10:21;;;;;;;5.50;2.80;;;13.10;99.90;;;;;;5028085;28;20207;-47
2023/08/08 04:12:47;;;;;;;6.00;2.80;;;13.10;99.90;;;;;;5032485;28;20230;-48
2023/08/08 04:15:12;;;;;;;6.15;2.58;;;13.10;99.90;;;;;;5032279;28;20167;-49
2023/08/08 04:17:38;;;;;;;5.45;2.67;;;13.20;99.90;;;;;;5025958;28;20180;-48
2023/08/08 04:20:05;;;;;;;9.23;2.90;;;13.10;99.90;;;;;;5012888;28;20644;-49
2023/08/08 04:22:31;;;;;;;6.65;2.72;;;13.10;99.90;;;;;;5012885;28;20283;-52
2023/08/08 04:24:57;;;;;;;9.05;3.22;;;13.10;99.90;;;;;;5012468;28;20172;-49
2023/08/08 04:27:22;;;;;;;7.80;2.92;;;13.10;99.90;;;;;;5011990;28;20207;-49
2023/08/08 04:29:48;;;;;;;8.63;3.13;;;13.10;99.90;;;;;;5012067;28;20176;-49
2023/08/08 04:32:14;;;;;;;7.28;3.30;;;13.10;99.90;;;;;;5012349;28;20171;-49
2023/08/08 04:34:39;;;;;;;5.78;3.03;;;13.10;99.90;;;;;;5012375;28;20653;-52
2023/08/08 04:37:05;;;;;;;6.32;3.25;;;13.10;99.90;;;;;;5012157;28;20222;-49
2023/08/08 04:39:30;;;;;;;4.72;3.28;;;13.10;99.90;;;;;;5013193;28;20735;-50
2023/08/08 04:41:56;;;;;;;10.75;3.40;;;13.10;99.90;;;;;;5011941;28;20545;-49
2023/08/08 04:44:21;;;;;;;7.38;3.63;;;13.10;99.90;;;;;;5012061;28;20199;-49
2023/08/08 04:46:47;;;;;;;5.85;3.25;;;13.20;99.90;;;;;;5010673;28;20235;-53
2023/08/08 04:49:12;;;;;;;9.88;3.53;;;13.20;99.90;;;;;;5011896;28;20174;-51
2023/08/08 04:51:38;;;;;;;6.22;3.92;;;13.30;99.90;;;;;;5011993;28;20168;-52
2023/08/08 04:54:04;;;;;;;8.18;3.28;;;13.40;99.90;;;;;;5012179;28;20532;-51
2023/08/08 04:56:29;;;;;;;9.43;3.22;;;13.40;99.90;;;;;;5012403;28;20168;-50
2023/08/08 04:58:55;;;;;;;5.30;3.25;;;13.50;99.90;;;;;;5012122;28;20168;-49
2023/08/08 05:01:21;;;;;;;13.27;3.60;;;13.50;99.90;;;;;;5011940;28;20643;-47
2023/08/08 05:03:48;;;;;;;12.80;4.20;;;13.60;99.90;;;;;;5012133;28;20204;-53
2023/08/08 05:06:13;;;;;;;8.15;3.45;;;13.60;99.90;;;;;;5011356;28;20893;-53
2023/08/08 05:08:39;;;;;;;9.13;3.20;;;13.70;99.90;;;;;;5014976;28;20254;-50
2023/08/08 05:11:04;;;;;;;7.00;3.42;;;13.80;99.90;;;;;;5031479;28;20198;-48
2023/08/08 05:13:30;;;;;;;8.23;3.20;;;13.80;99.90;;;;;;5031556;28;20250;-51
2023/08/08 05:15:55;;;;;;;4.82;3.10;;;13.80;99.90;;;;;;5031589;28;20182;-47
2023/08/08 05:18:21;;;;;;;7.75;3.85;;;14.00;99.90;;;;;;5030914;28;20266;-47
2023/08/08 05:20:46;;;;;;;7.78;3.83;;;14.00;99.90;;;;;;5031296;28;20206;-47
2023/08/08 05:23:12;;;;;;;7.07;3.03;;;14.00;99.90;;;;;;5031433;28;20707;-47
2023/08/08 05:25:38;;;;;;;8.63;3.60;;;14.10;99.90;;;;;;5031038;28;20277;-48
2023/08/08 05:28:03;;;;;;;10.00;3.40;;;14.20;99.90;;;;;;5031807;28;20175;-48
2023/08/08 05:30:29;;;;;;;7.38;3.42;;;15.30;99.90;;;;;;5031454;28;20172;-48
2023/08/08 05:32:54;;;;;;;7.47;3.47;;;14.20;99.90;;;;;;5031074;28;20262;-48
2023/08/08 05:35:20;;;;;;;9.10;3.58;;;14.20;99.90;;;;;;5029843;28;20237;-48
2023/08/08 05:37:45;;;;;;;5.85;3.15;;;14.40;99.90;;;;;;5031043;28;20195;-46
2023/08/08 05:40:11;;;;;;;10.75;3.45;;;14.40;99.90;;;;;;5014673;28;20172;-52
2023/08/08 05:42:40;;;;;;;7.47;3.17;;;14.40;99.90;;;;;;5011227;28;20168;-49
2023/08/08 05:45:06;;;;;;;9.02;3.60;;;14.50;99.90;;;;;;5011146;28;20175;-46
2023/08/08 05:47:32;;;;;;;5.80;3.15;;;14.50;99.90;;;;;;5011572;28;20179;-48
2023/08/08 05:49:58;;;;;;;9.63;4.40;;;14.50;99.90;;;;;;5011358;28;20199;-47
2023/08/08 05:52:24;;;;;;;9.82;4.05;;;14.60;99.90;;;;;;5011221;28;20243;-48
2023/08/08 05:54:49;;;;;;;15.95;3.72;;;14.70;99.90;;;;;;5011201;28;20222;-47
2023/08/08 05:57:15;;;;;;;7.10;3.58;;;14.70;99.90;;;;;;5011089;28;20207;-49
2023/08/08 05:59:40;;;;;;;8.45;3.15;;;14.80;99.90;;;;;;5011104;28;20176;-47
2023/08/08 06:02:06;;;;;;;9.93;3.47;;;14.80;99.90;;;;;;5011295;28;20168;-47
2023/08/08 06:04:32;;;;;;;8.50;3.10;;;14.80;99.90;;;;;;5011470;28;20665;-47
2023/08/08 06:06:57;;;;;;;6.35;3.10;;;14.90;99.90;;;;;;5009762;28;20211;-47
2023/08/08 06:09:23;;;;;;;8.38;3.00;;;15.00;99.90;;;;;;5019730;28;20205;-47
2023/08/08 06:11:48;;;;;;;9.07;3.10;;;15.00;99.90;;;;;;5028764;28;20260;-47
2023/08/08 06:14:14;;;;;;;5.20;2.10;;;15.10;99.90;;;;;;5030755;28;20179;-47
2023/08/08 06:16:39;;;;;;;8.57;2.85;;;15.20;99.90;;;;;;5030546;28;20175;-47
2023/08/08 06:19:06;;;;;;;9.65;3.10;;;15.40;99.90;;;;;;5031129;28;20168;-48
2023/08/08 06:21:31;;;;;;;6.20;3.35;;;15.20;99.90;;;;;;5034898;28;20721;-48
2023/08/08 06:23:57;;;;;;;9.00;2.90;;;15.30;99.90;;;;;;5033185;28;20175;-48
2023/08/08 06:26:23;;;;;;;5.88;2.45;;;15.40;99.90;;;;;;5034546;28;20202;-48
2023/08/08 06:28:48;;;;;;;8.95;3.00;;;15.50;99.90;;;;;;5034516;28;20202;-50
2023/08/08 06:31:14;;;;;;;7.90;2.80;;;15.40;99.90;;;;;;5034626;28;20175;-47
2023/08/08 06:33:40;;;;;;;10.65;3.22;;;15.30;99.90;;;;;;5034315;28;20512;-48
2023/08/08 06:36:06;;;;;;;6.68;3.83;;;15.40;99.90;;;;;;5034381;28;20202;-48
2023/08/08 06:38:34;;;;;;;9.27;3.00;;;15.40;99.90;;;;;;5032695;28;20187;-48
2023/08/08 06:41:00;;;;;;;4.72;2.60;;;15.60;99.90;;;;;;5014712;28;20514;-47
2023/08/08 06:43:26;;;;;;;6.13;3.00;;;15.70;99.90;;;;;;5014456;28;20186;-49
2023/08/08 06:45:52;;;;;;;9.70;3.20;;;15.60;99.90;;;;;;5014214;28;20679;-49
2023/08/08 06:48:17;;;;;;;11.50;2.80;;;15.60;99.90;;;;;;5014503;28;20235;-48
2023/08/08 06:50:43;;;;;;;6.85;2.95;;;15.80;99.90;;;;;;5031474;28;20190;-46
2023/08/08 06:53:08;;;;;;;8.60;2.97;;;15.70;99.90;;;;;;5032822;28;20203;-50
2023/08/08 06:55:34;;;;;;;10.07;2.88;;;15.70;99.90;;;;;;5032587;28;20164;-47
2023/08/08 06:58:00;;;;;;;8.23;3.13;;;15.80;99.90;;;;;;5033300;28;20171;-46
2023/08/08 07:00:27;;;;;;;9.15;2.65;;;15.90;99.90;;;;;;5032506;28;20163;-52
2023/08/08 07:02:52;;;;;;;10.80;3.13;;;15.80;99.90;;;;;;5032553;28;20187;-44
2023/08/08 07:05:18;;;;;;;8.75;2.80;;;15.70;99.90;;;;;;5032566;28;20206;-48
2023/08/08 07:07:44;;;;;;;5.40;2.70;;;15.60;99.90;;;;;;5032409;28;20604;-49
2023/08/08 07:10:11;;;;;;;7.72;3.00;;;15.70;99.90;;;;;;5031708;28;20168;-50
2023/08/08 07:12:37;;;;;;;11.52;2.90;;;15.80;99.90;;;;;;5032231;28;20258;-46
2023/08/08 07:15:03;;;;;;;6.35;2.53;;;15.80;99.90;;;;;;5032978;28;20202;-46
2023/08/08 07:17:28;;;;;;;10.43;3.88;;;15.90;99.90;;;;;;5032245;28;20175;-48
2023/08/08 07:19:54;;;;;;;4.90;2.58;;;15.90;99.90;;;;;;5032345;28;20167;-50
2023/08/08 07:22:20;;;;;;;6.30;2.80;;;16.00;99.90;;;;;;5031947;28;20178;-46
2023/08/08 07:24:46;;;;;;;5.20;2.95;;;16.20;99.90;;;;;;5032000;28;20182;-48
2023/08/08 07:27:11;;;;;;;6.38;3.15;;;16.30;99.90;;;;;;5031924;28;20207;-50
2023/08/08 07:29:37;;;;;;;13.85;3.65;;;16.30;99.90;;;;;;5029892;28;20175;-52
2023/08/08 07:32:04;;;;;;;11.20;3.72;;;16.50;99.90;;;;;;5032212;28;20174;-52
2023/08/08 07:34:30;;;;;;;8.98;3.55;;;16.60;99.90;;;;;;5032436;28;20187;-50
2023/08/08 07:36:56;;;;;;;8.32;2.90;;;16.50;99.90;;;;;;5031742;28;20538;-50
2023/08/08 07:39:21;;;;;;;10.70;3.30;;;16.40;99.90;;;;;;5031995;28;20184;-50
2023/08/08 07:41:47;;;;;;;10.90;2.70;;;18.00;99.90;;;;;;5031860;28;20183;-51
2023/08/08 07:44:12;;;;;;;11.07;3.03;;;16.50;99.90;;;;;;5031809;28;20178;-49
2023/08/08 07:46:38;;;;;;;8.35;3.30;;;16.70;99.90;;;;;;5031848;28;20231;-51
2023/08/08 07:49:04;;;;;;;8.68;2.90;;;16.90;99.90;;;;;;5031672;28;20175;-50
2023/08/08 07:51:30;;;;;;;9.50;3.83;;;16.80;99.90;;;;;;5032410;28;20186;-51
2023/08/08 07:53:57;;;;;;;12.05;4.10;;;16.80;99.90;;;;;;5031646;28;20163;-50
2023/08/08 07:56:22;;;;;;;8.18;2.90;;;16.80;99.90;;;;;;5031530;28;20545;-51
2023/08/08 07:58:48;;;;;;;8.80;3.63;;;16.70;99.90;;;;;;5031840;28;20198;-50
2023/08/08 08:01:14;;;;;;;7.13;3.47;;;16.60;99.90;;;;;;5031639;28;20187;-49
2023/08/08 08:03:40;;;;;;;8.10;3.47;;;16.40;99.90;;;;;;5031426;28;20183;-50
2023/08/08 08:06:05;;;;;;;11.48;3.78;;;16.40;99.90;;;;;;5031419;28;20260;-50
2023/08/08 08:08:31;;;;;;;6.07;3.40;;;16.50;99.90;;;;;;5030599;28;20171;-50
2023/08/08 08:10:56;;;;;;;11.00;3.60;;;16.30;99.90;;;;;;5011544;28;20179;-50
2023/08/08 08:13:22;;;;;;;7.03;3.63;;;16.10;99.90;;;;;;5011243;28;20215;-50
2023/08/08 08:15:47;;;;;;;7.70;4.20;;;16.00;99.90;;;;;;5011568;28;20168;-49
2023/08/08 08:18:16;;;;;;;9.55;4.00;;;15.90;99.90;;;;;;5011382;28;20179;-49
2023/08/08 08:20:41;;;;;;;8.27;4.18;;;15.90;99.90;;;;;;5011115;28;20176;-50
2023/08/08 08:23:07;;;;;;;13.63;4.78;;;15.90;99.90;;;;;;5011227;28;20172;-49
2023/08/08 08:25:32;;;;;;;9.10;4.65;;;16.00;99.90;;;;;;5011829;28;20187;-48
2023/08/08 08:27:58;;;;;;;8.45;4.18;;;16.00;99.90;;;;;;5011704;28;20180;-49
2023/08/08 08:30:25;;;;;;;11.30;4.63;;;16.10;99.90;;;;;;5011119;28;20211;-48
2023/08/08 08:32:51;;;;;;;14.50;4.32;;;16.00;99.90;;;;;;5011225;28;20180;-49
2023/08/08 08:35:17;;;;;;;12.80;3.95;;;16.00;99.90;;;;;;5010963;28;20162;-49
2023/08/08 08:37:43;;;;;;;8.73;4.13;;;16.00;99.90;;;;;;5011115;28;20178;-49
2023/08/08 08:40:09;;;;;;;15.43;3.88;;;16.10;99.90;;;;;;5024888;28;20184;-49
2023/08/08 08:42:36;;;;;;;9.88;4.22;;;16.20;99.90;;;;;;5030475;28;20171;-49
2023/08/08 08:45:04;;;;;;;9.77;3.50;;;16.30;99.90;;;;;;5030947;28;20163;-49
2023/08/08 08:47:31;;;;;;;7.68;3.25;;;16.30;99.90;;;;;;5030842;28;20237;-48
2023/08/08 08:49:57;;;;;;;6.97;3.25;;;16.30;99.90;;;;;;5030723;28;20168;-48
2023/08/08 08:52:23;;;;;;;9.15;3.10;;;16.30;99.90;;;;;;5030454;28;20175;-48
2023/08/08 08:54:51;;;;;;;8.15;3.20;;;16.30;99.90;;;;;;5030579;28;20178;-48
2023/08/08 08:57:17;;;;;;;9.13;3.17;;;16.30;99.90;;;;;;5030376;28;20163;-49
2023/08/08 08:59:42;;;;;;;11.43;4.13;;;16.40;99.90;;;;;;5030293;28;20209;-48
2023/08/08 09:02:10;;;;;;;11.95;3.25;;;16.70;99.90;;;;;;5029040;28;20246;-49
2023/08/08 09:04:36;;;;;;;8.77;2.85;;;16.80;99.90;;;;;;5030534;28;20266;-49
2023/08/08 09:07:05;;;;;;;6.63;3.63;;;16.80;99.90;;;;;;5030655;28;20330;-48
2023/08/08 09:09:34;;;;;;;6.35;3.03;;;16.70;99.90;;;;;;5018742;28;20540;-50
2023/08/08 09:12:03;;;;;;;5.97;3.10;;;16.60;99.90;;;;;;5010661;28;20219;-49
2023/08/08 09:14:28;;;;;;;5.22;3.03;;;16.70;99.90;;;;;;5011086;28;20176;-49
2023/08/08 09:16:54;;;;;;;11.80;3.70;;;16.70;99.90;;;;;;5010338;28;20178;-49
2023/08/08 09:19:21;;;;;;;7.68;2.80;;;16.60;99.90;;;;;;5010153;28;20187;-48
2023/08/08 09:21:47;;;;;;;8.10;3.30;;;16.70;99.90;;;;;;5010271;28;20172;-48
2023/08/08 09:24:13;;;;;;;4.32;3.10;;;16.80;99.90;;;;;;5011276;28;20179;-48
2023/08/08 09:26:44;;;;;;;6.38;2.70;;;16.90;99.90;;;;;;5010089;28;20200;-48
2023/08/08 09:29:14;;;;;;;6.60;3.00;;;17.10;99.90;;;;;;5010294;28;20715;-49
2023/08/08 09:31:40;;;;;;;4.90;2.67;;;17.10;99.90;;;;;;5008862;28;20170;-49
2023/08/08 09:34:06;;;;;;;6.78;3.00;;;17.20;99.90;;;;;;5009982;28;20164;-48
2023/08/08 09:36:33;;;;;;;6.75;3.30;;;17.40;99.90;;;;;;5010639;28;20172;-49
2023/08/08 09:38:59;;;;;;;5.72;3.10;;;17.80;99.90;;;;;;5016760;28;20551;-49
2023/08/08 09:41:25;;;;;;;7.15;2.92;;;17.90;99.90;;;;;;5029538;28;20218;-48
2023/08/08 09:43:52;;;;;;;7.72;3.00;;;18.10;99.90;;;;;;5029770;28;20262;-49
2023/08/08 09:46:21;;;;;;;6.07;3.05;;;18.00;99.90;;;;;;5029627;28;20209;-48
2023/08/08 09:48:48;;;;;;;5.13;2.78;;;17.90;99.90;;;;;;5029400;28;20814;-48
2023/08/08 09:51:14;;;;;;;6.03;3.03;;;17.70;99.90;;;;;;5029733;28;20175;-49
2023/08/08 09:53:41;;;;;;;9.00;2.90;;;17.70;99.90;;;;;;5027442;28;20259;-48
2023/08/08 09:56:07;;;;;;;9.20;2.78;;;17.70;99.90;;;;;;5029639;28;20222;-48
2023/08/08 09:58:33;;;;;;;4.70;2.40;;;17.70;99.90;;;;;;5029473;28;20168;-49
2023/08/08 10:00:59;;;;;;;6.38;2.67;;;17.80;99.90;;;;;;5030205;28;20263;-49
2023/08/08 10:03:26;;;;;;;10.05;3.25;;;17.90;99.90;;;;;;5029521;28;20257;-49
2023/08/08 10:05:52;;;;;;;6.65;3.00;;;17.90;99.90;;;;;;5029702;28;20229;-49
2023/08/08 10:08:18;;;;;;;5.90;3.15;;;18.20;99.90;;;;;;5028391;28;20559;-48
2023/08/08 10:10:46;;;;;;;4.95;2.50;;;18.50;99.90;;;;;;5009637;28;20578;-49
2023/08/08 10:13:23;;;;;;;7.22;2.53;;;18.70;99.90;;;;;;5009474;28;20223;-50
2023/08/08 10:15:49;;;;;;;6.07;2.67;;;18.80;99.90;;;;;;5009736;28;20209;-50
2023/08/08 10:18:15;;;;;;;4.00;2.70;;;19.10;99.90;;;;;;5009580;28;20171;-50
2023/08/08 10:20:47;;;;;;;5.63;2.67;;;19.20;99.90;;;;;;5009593;28;20176;-50
2023/08/08 10:23:18;;;;;;;3.53;2.13;;;19.10;99.90;;;;;;5009629;28;20176;-50
2023/08/08 10:25:50;;;;;;;8.60;2.83;;;18.80;99.90;;;;;;5009446;28;20211;-50
2023/08/08 10:28:18;;;;;;;9.57;2.40;;;18.70;99.90;;;;;;5009582;28;20222;-50
2023/08/08 10:30:56;;;;;;;6.15;2.42;;;18.50;99.90;;;;;;5009751;28;20183;-50
2023/08/08 10:33:26;;;;;;;4.97;2.40;;;18.40;99.90;;;;;;5009533;28;20291;-49
2023/08/08 10:36:03;;;;;;;7.20;2.80;;;18.20;99.90;;;;;;5009591;28;20171;-49
2023/08/08 10:38:44;;;;;;;6.88;2.13;;;18.20;99.90;;;;;;5014105;28;20195;-48
2023/08/08 10:41:21;;;;;;;4.93;2.25;;;18.10;99.90;;;;;;5029121;28;20276;-49
2023/08/08 10:43:51;;;;;;;5.10;2.38;;;18.00;99.90;;;;;;5029106;28;20163;-48
2023/08/08 10:46:27;;;;;;;2.80;1.88;;;17.90;99.90;;;;;;5029487;28;20311;-49
2023/08/08 10:48:54;;;;;;;4.22;2.10;;;18.00;99.90;;;;;;5029331;28;20527;-49
2023/08/08 10:51:21;;;;;;;5.18;2.25;;;18.00;99.90;;;;;;5027594;28;20167;-50
2023/08/08 10:53:50;;;;;;;6.30;2.25;;;17.90;99.90;;;;;;5029168;28;20662;-51
2023/08/08 10:56:19;;;;;;;6.78;2.45;;;17.90;99.90;;;;;;5029294;28;20250;-50
2023/08/08 10:58:48;;;;;;;7.95;2.40;;;17.80;99.90;;;;;;5029407;28;20185;-50
2023/08/08 11:01:14;;;;;;;5.25;2.10;;;17.80;99.90;;;;;;5029063;28;20643;-50
2023/08/08 11:03:40;;;;;;;5.93;2.30;;;17.80;99.90;;;;;;5028834;28;20240;-50
2023/08/08 11:06:11;;;;;;;9.05;3.03;;;17.70;99.90;;;;;;5030920;28;20198;-50
2023/08/08 11:08:38;;;;;;;5.32;2.40;;;17.60;99.90;;;;;;5031047;28;20524;-50
2023/08/08 11:11:05;;;;;;;5.72;2.05;;;17.70;99.90;;;;;;5032686;28;20179;-50
2023/08/08 11:13:32;;;;;;;6.93;2.28;;;17.70;99.90;;;;;;5032443;28;20211;-50
2023/08/08 11:15:57;;;;;;;6.45;2.72;;;14.30;99.90;;;;;;5032681;28;20167;-50
2023/08/08 11:18:25;;;;;;;5.32;2.55;;;17.70;99.90;;;;;;5032304;28;20221;-49
2023/08/08 11:20:50;;;;;;;5.00;2.70;;;17.80;99.90;;;;;;5032368;28;20172;-50
2023/08/08 11:23:17;;;;;;;5.15;2.10;;;17.80;99.90;;;;;;5032124;28;20266;-50
2023/08/08 11:25:44;;;;;;;7.45;2.65;;;17.80;99.90;;;;;;5032115;28;20187;-49
2023/08/08 11:28:11;;;;;;;5.03;2.75;;;17.80;99.90;;;;;;5032343;28;20253;-49
2023/08/08 11:30:39;;;;;;;7.97;3.05;;;17.80;99.90;;;;;;5032231;28;20214;-49
2023/08/08 11:33:05;;;;;;;4.55;2.20;;;18.70;99.90;;;;;;5032091;28;20631;-48
2023/08/08 11:35:31;;;;;;;4.13;2.17;;;17.90;99.90;;;;;;5032265;28;20561;-48
2023/08/08 11:37:58;;;;;;;7.22;2.28;;;18.40;99.90;;;;;;5029594;28;20178;-48
2023/08/08 11:40:26;;;;;;;5.65;2.35;;;17.90;99.90;;;;;;5012225;28;20225;-48
2023/08/08 11:42:53;;;;;;;5.90;2.63;;;18.00;99.90;;;;;;5012383;28;20183;-48
2023/08/08 11:45:19;;;;;;;3.63;1.88;;;18.00;99.90;;;;;;5011781;28;20519;-49
2023/08/08 11:47:55;;;;;;;6.20;2.00;;;18.00;99.90;;;;;;5012033;28;20180;-48
2023/08/08 11:50:23;;;;;;;4.70;2.30;;;18.00;99.90;;;;;;5011954;28;20269;-49
2023/08/08 11:52:52;;;;;;;4.88;2.28;;;18.10;99.90;;;;;;5011837;28;20172;-50
2023/08/08 11:55:22;;;;;;;5.60;2.13;;;18.00;99.90;;;;;;5011664;28;20221;-50
2023/08/08 11:57:48;;;;;;;4.35;2.10;;;17.90;99.90;;;;;;5012126;28;20294;-48
2023/08/08 12:00:14;;;;;;;4.82;2.10;;;17.90;99.90;;;;;;5011977;28;20255;-49
2023/08/08 12:02:41;;;;;;;5.57;2.40;;;18.00;99.90;;;;;;5011705;28;20175;-49
2023/08/08 12:05:11;;;;;;;6.20;2.17;;;18.00;99.90;;;;;;5011817;28;20274;-50
2023/08/08 12:07:37;;;;;;;7.15;2.28;;;18.00;99.90;;;;;;5011585;28;20235;-50
2023/08/08 12:10:06;;;;;;;5.57;2.13;;;18.00;99.90;;;;;;5029960;28;20175;-49
2023/08/08 12:12:35;;;;;;;9.07;2.28;;;17.90;99.90;;;;;;5031547;28;20227;-50
2023/08/08 12:15:08;;;;;;;3.72;2.10;;;16.70;99.90;;;;;;5031675;28;20214;-49
2023/08/08 12:17:34;;;;;;;3.85;1.70;;;17.90;99.90;;;;;;5030486;28;20278;-50
2023/08/08 12:20:03;;;;;;;6.60;2.33;;;17.90;99.90;;;;;;5031973;28;20194;-49
2023/08/08 12:22:28;;;;;;;5.97;2.83;;;17.90;99.90;;;;;;5031747;28;20171;-49
2023/08/08 12:24:54;;;;;;;5.93;3.22;;;17.50;99.90;;;;;;5031063;28;20171;-49
2023/08/08 12:27:19;;;;;;;5.22;3.08;;;17.40;99.90;;;;;;5031153;28;20214;-50
2023/08/08 12:29:45;;;;;;;8.90;3.05;;;17.30;99.90;;;;;;5030874;28;20694;-50
2023/08/08 12:32:11;;;;;;;6.28;3.22;;;17.10;99.90;;;;;;5031002;28;20178;-51
2023/08/08 12:34:36;;;;;;;10.73;2.78;;;17.00;99.90;;;;;;5030945;28;20178;-49
2023/08/08 12:37:02;;;;;;;5.28;2.97;;;16.90;99.90;;;;;;5030739;28;20639;-48
2023/08/08 12:39:29;;;;;;;7.97;3.22;;;16.90;99.90;;;;;;5014045;28;20195;-50
2023/08/08 12:41:54;;;;;;;5.35;2.65;;;16.80;99.90;;;;;;5011051;28;20180;-48